createdAt,value
2022-12-31T00:01:12.063Z,100174.69
2022-12-31T00:03:41.634Z,100172.22
2022-12-31T00:06:21.217Z,100172.88
2022-12-31T00:08:50.749Z,100174.78
2022-12-31T00:11:19.926Z,100182.91
2022-12-31T00:13:50.416Z,100187.25
2022-12-31T00:16:21.339Z,100191.66
2022-12-31T00:18:53.457Z,100193.63
2022-12-31T00:21:24.087Z,100195.16
2022-12-31T00:23:54.019Z,100195.91
2022-12-31T00:26:25.888Z,100194.31
2022-12-31T00:28:56.354Z,100192.41
2022-12-31T00:31:26.912Z,100209.00
2022-12-31T00:33:56.826Z,100208.06
2022-12-31T00:36:28.821Z,100211.03
2022-12-31T00:38:59.113Z,100210.16
2022-12-31T00:41:28.983Z,100212.59
2022-12-31T00:43:58.657Z,100212.41
2022-12-31T00:46:27.822Z,100218.69
2022-12-31T00:48:56.749Z,100210.81
2022-12-31T00:51:27.906Z,100224.69
2022-12-31T00:53:58.203Z,100214.16
2022-12-31T00:56:29.072Z,100223.91
2022-12-31T00:58:58.297Z,100221.94
2022-12-31T01:01:29.883Z,100229.75
2022-12-31T01:04:01.456Z,100224.91
2022-12-31T01:06:32.078Z,100219.72
2022-12-31T01:09:00.862Z,100224.69
2022-12-31T01:11:30.175Z,100220.22
2022-12-31T01:14:00.843Z,100216.69
2022-12-31T01:16:31.683Z,100228.06
2022-12-31T01:19:01.696Z,100225.31
2022-12-31T01:21:32.092Z,100232.59
2022-12-31T01:24:01.358Z,100228.28
2022-12-31T01:26:30.090Z,100228.50
2022-12-31T01:28:59.431Z,100235.66
2022-12-31T01:31:28.751Z,100230.19
2022-12-31T01:33:59.235Z,100230.25
2022-12-31T01:36:30.104Z,100227.53
2022-12-31T01:39:02.447Z,100227.09
2022-12-31T01:41:33.378Z,100226.13
2022-12-31T01:44:04.481Z,100222.56
2022-12-31T01:46:39.073Z,100234.78
2022-12-31T01:49:14.761Z,100233.25
2022-12-31T01:51:46.604Z,100222.75
2022-12-31T01:54:21.410Z,100221.09
2022-12-31T01:56:53.821Z,100222.81
2022-12-31T01:59:25.187Z,100220.19
2022-12-31T02:01:54.206Z,100228.94
2022-12-31T02:04:25.689Z,100226.19
2022-12-31T02:06:58.627Z,100231.53
2022-12-31T02:09:29.750Z,100228.84
2022-12-31T02:11:58.419Z,100235.03
2022-12-31T02:14:29.986Z,100229.63
2022-12-31T02:17:06.921Z,100231.63
2022-12-31T02:20:25.584Z,100237.63
2022-12-31T02:23:17.167Z,100224.28
2022-12-31T02:26:08.514Z,100227.72
2022-12-31T02:28:58.336Z,100228.56
2022-12-31T02:31:35.897Z,100235.81
2022-12-31T02:34:10.252Z,100231.28
2022-12-31T02:36:48.330Z,100239.88
2022-12-31T02:39:18.067Z,100233.84
2022-12-31T02:41:52.747Z,100237.25
2022-12-31T02:44:26.268Z,100239.94
2022-12-31T02:47:08.017Z,100236.31
2022-12-31T02:49:44.195Z,100238.19
2022-12-31T02:52:23.226Z,100247.09
2022-12-31T02:55:02.394Z,100243.53
2022-12-31T02:57:39.414Z,100246.91
2022-12-31T03:00:28.076Z,100252.34
2022-12-31T03:03:01.664Z,100261.03
2022-12-31T03:05:35.071Z,100253.22
2022-12-31T03:08:04.140Z,100253.13
2022-12-31T03:10:32.822Z,100256.59
2022-12-31T03:13:00.933Z,100265.34
2022-12-31T03:15:31.504Z,100262.72
2022-12-31T03:18:05.145Z,100260.94
2022-12-31T03:20:52.991Z,100249.94
2022-12-31T03:23:24.307Z,100261.19
2022-12-31T03:25:53.455Z,100265.59
2022-12-31T03:28:25.751Z,100266.56
2022-12-31T03:30:56.824Z,100263.06
2022-12-31T03:33:31.753Z,100264.78
2022-12-31T03:36:00.310Z,100259.34
2022-12-31T03:38:29.221Z,100256.06
2022-12-31T03:40:57.794Z,100256.94
2022-12-31T03:43:27.656Z,100262.41
2022-12-31T03:45:59.832Z,100275.47
2022-12-31T03:48:30.370Z,100271.00
2022-12-31T03:50:58.920Z,100265.13
2022-12-31T03:53:27.787Z,100256.38
2022-12-31T03:55:56.819Z,100265.91
2022-12-31T03:58:25.720Z,100263.34
2022-12-31T04:00:54.270Z,100267.81
2022-12-31T04:03:23.133Z,100266.81
2022-12-31T04:05:56.961Z,100274.78
2022-12-31T04:08:26.102Z,100271.34
2022-12-31T04:10:54.685Z,100266.88
2022-12-31T04:13:23.560Z,100265.09
2022-12-31T04:15:52.622Z,100263.34
2022-12-31T04:18:21.518Z,100262.50
2022-12-31T04:20:50.422Z,100265.97
2022-12-31T04:23:20.790Z,100265.97
2022-12-31T04:25:49.292Z,100266.66
2022-12-31T04:28:18.274Z,100269.19
2022-12-31T04:30:46.957Z,100275.41
2022-12-31T04:33:15.844Z,100274.63
2022-12-31T04:35:45.141Z,100282.47
2022-12-31T04:38:14.006Z,100285.16
2022-12-31T04:40:59.908Z,100288.63
2022-12-31T04:43:29.002Z,100294.00
2022-12-31T04:45:57.652Z,100284.44
2022-12-31T04:48:26.622Z,100286.16
2022-12-31T04:50:55.237Z,100287.88
2022-12-31T04:53:24.665Z,100282.78
2022-12-31T04:55:54.607Z,100289.84
2022-12-31T04:58:23.958Z,100292.53
2022-12-31T05:00:54.701Z,100302.91
2022-12-31T05:03:25.360Z,100309.00
2022-12-31T05:05:54.226Z,100316.78
2022-12-31T05:08:23.071Z,100319.44
2022-12-31T05:10:51.648Z,100318.41
2022-12-31T05:13:21.900Z,100318.28
2022-12-31T05:15:50.838Z,100321.09
2022-12-31T05:18:20.164Z,100315.91
2022-12-31T05:20:49.127Z,100320.34
2022-12-31T05:23:19.321Z,100311.56
2022-12-31T05:25:49.336Z,100314.09
2022-12-31T05:28:18.578Z,100315.84
2022-12-31T05:30:50.010Z,100310.50
2022-12-31T05:33:19.718Z,100321.03
2022-12-31T05:35:48.289Z,100326.34
2022-12-31T05:38:17.182Z,100329.00
2022-12-31T05:40:45.904Z,100328.16
2022-12-31T05:43:16.110Z,100328.94
2022-12-31T05:45:44.663Z,100335.03
2022-12-31T05:48:15.021Z,100343.75
2022-12-31T05:50:43.535Z,100346.41
2022-12-31T05:53:12.757Z,100341.16
2022-12-31T05:55:41.232Z,100350.81
2022-12-31T05:58:10.033Z,100348.16
2022-12-31T06:00:39.570Z,100345.41
2022-12-31T06:03:08.652Z,100352.50
2022-12-31T06:05:41.105Z,100358.59
2022-12-31T06:08:10.136Z,100355.97
2022-12-31T06:10:38.952Z,100362.97
2022-12-31T06:13:08.098Z,100350.63
2022-12-31T06:15:40.330Z,100363.84
2022-12-31T06:18:09.378Z,100356.91
2022-12-31T06:20:39.699Z,100358.69
2022-12-31T06:23:08.571Z,100361.91
2022-12-31T06:25:38.160Z,100364.63
2022-12-31T06:28:07.447Z,100369.91
2022-12-31T06:30:36.049Z,100361.16
2022-12-31T06:33:04.970Z,100369.94
2022-12-31T06:35:33.596Z,100370.81
2022-12-31T06:38:03.834Z,100370.63
2022-12-31T06:40:32.875Z,100377.38
2022-12-31T06:43:02.487Z,100373.91
2022-12-31T06:45:31.109Z,100374.81
2022-12-31T06:47:59.995Z,100371.16
2022-12-31T06:50:28.577Z,100378.19
2022-12-31T06:52:57.586Z,100376.69
2022-12-31T06:55:28.371Z,100375.75
2022-12-31T06:57:57.965Z,100376.63
2022-12-31T07:00:27.077Z,100382.75
2022-12-31T07:03:13.961Z,100385.75
2022-12-31T07:05:49.600Z,100390.31
2022-12-31T07:08:41.052Z,100403.97
2022-12-31T07:11:19.737Z,100416.09
2022-12-31T07:13:59.606Z,100413.16
2022-12-31T07:16:42.835Z,100417.69
2022-12-31T07:19:25.186Z,100413.03
2022-12-31T07:21:56.700Z,100412.13
2022-12-31T07:24:26.137Z,100411.50
2022-12-31T07:27:17.437Z,100411.38
2022-12-31T07:29:58.905Z,100424.56
2022-12-31T07:32:42.301Z,100418.13
2022-12-31T07:35:18.834Z,100421.66
2022-12-31T07:37:58.169Z,100421.19
2022-12-31T07:40:37.495Z,100420.47
2022-12-31T07:43:14.738Z,100433.56
2022-12-31T07:45:50.550Z,100433.97
2022-12-31T07:48:26.848Z,100432.03
2022-12-31T07:50:58.011Z,100436.19
2022-12-31T07:53:27.724Z,100440.25
2022-12-31T07:55:59.693Z,100431.28
2022-12-31T07:58:45.118Z,100436.09
2022-12-31T08:01:16.776Z,100442.25
2022-12-31T08:03:58.499Z,100450.72
2022-12-31T08:06:37.584Z,100451.38
2022-12-31T08:09:13.503Z,100455.59
2022-12-31T08:11:48.714Z,100468.63
2022-12-31T08:14:19.947Z,100469.03
2022-12-31T08:16:49.447Z,100466.25
2022-12-31T08:19:27.472Z,100473.00
2022-12-31T08:22:20.371Z,100471.16
2022-12-31T08:25:05.103Z,100478.59
2022-12-31T08:27:42.762Z,100478.91
2022-12-31T08:30:16.112Z,100482.19
2022-12-31T08:32:51.269Z,100484.06
2022-12-31T08:35:35.009Z,100489.78
2022-12-31T08:38:24.245Z,100493.88
2022-12-31T08:41:02.131Z,100492.09
2022-12-31T08:43:44.809Z,100498.00
2022-12-31T08:46:22.173Z,100495.16
2022-12-31T08:48:51.388Z,100502.03
2022-12-31T08:51:23.171Z,100499.31
2022-12-31T08:53:53.727Z,100501.72
2022-12-31T08:56:30.497Z,100510.09
2022-12-31T08:59:12.571Z,100511.97
2022-12-31T09:01:58.419Z,100514.44
2022-12-31T09:04:35.749Z,100521.41
2022-12-31T09:07:06.390Z,100519.63
2022-12-31T09:09:45.803Z,100520.97
2022-12-31T09:12:25.769Z,100516.28
2022-12-31T09:15:06.043Z,100517.81
2022-12-31T09:17:47.007Z,100521.97
2022-12-31T09:20:21.815Z,100525.50
2022-12-31T09:22:50.828Z,100520.00
2022-12-31T09:25:21.832Z,100518.03
2022-12-31T09:28:04.378Z,100516.94
2022-12-31T09:30:43.642Z,100513.25
2022-12-31T09:33:22.581Z,100516.56
2022-12-31T09:35:56.209Z,100511.34
2022-12-31T09:38:38.611Z,100510.03
2022-12-31T09:41:15.743Z,100509.47
2022-12-31T09:44:26.160Z,100516.16
2022-12-31T09:47:24.380Z,100509.81
2022-12-31T09:50:21.870Z,100508.72
2022-12-31T09:53:22.881Z,100521.06
2022-12-31T09:55:57.530Z,100515.00
2022-12-31T09:58:38.647Z,100518.16
2022-12-31T10:01:24.830Z,100518.50
2022-12-31T10:04:15.512Z,100514.78
2022-12-31T10:06:53.295Z,100513.69
2022-12-31T10:09:38.531Z,100510.59
2022-12-31T10:12:28.421Z,100506.72
2022-12-31T10:15:15.531Z,100503.81
2022-12-31T10:17:56.736Z,100499.28
2022-12-31T10:20:37.728Z,100488.75
2022-12-31T10:23:43.303Z,100494.34
2022-12-31T10:26:26.391Z,100495.34
2022-12-31T10:28:57.506Z,100495.56
2022-12-31T10:31:41.318Z,100499.34
2022-12-31T10:34:16.436Z,100502.84
2022-12-31T10:36:55.069Z,100503.81
2022-12-31T10:39:40.777Z,100502.56
2022-12-31T10:42:54.907Z,100500.13
2022-12-31T10:46:11.150Z,100492.91
2022-12-31T10:49:12.080Z,100499.00
2022-12-31T10:52:18.972Z,100491.47
2022-12-31T10:55:24.942Z,100488.06
2022-12-31T10:58:12.977Z,100486.56
2022-12-31T11:00:50.896Z,100490.59
2022-12-31T11:04:12.565Z,100496.84
2022-12-31T11:07:17.407Z,100493.13
2022-12-31T11:10:31.246Z,100489.16
2022-12-31T11:13:59.681Z,100500.88
2022-12-31T11:16:39.519Z,100490.31
2022-12-31T11:19:19.739Z,100494.44
2022-12-31T11:22:02.366Z,100491.19
2022-12-31T11:24:48.309Z,100499.16
2022-12-31T11:27:34.225Z,100490.09
2022-12-31T11:30:12.368Z,100484.81
2022-12-31T11:32:55.421Z,100486.53
2022-12-31T11:35:32.586Z,100491.66
2022-12-31T11:38:16.169Z,100482.59
2022-12-31T11:40:54.318Z,100481.69
2022-12-31T11:43:29.882Z,100473.31
2022-12-31T11:46:38.082Z,100478.16
2022-12-31T11:49:18.411Z,100485.97
2022-12-31T11:52:08.351Z,100479.25
2022-12-31T11:55:11.258Z,100475.75
2022-12-31T11:57:46.170Z,100471.28
2022-12-31T12:00:20.817Z,100467.41
2022-12-31T12:02:52.950Z,100466.25
2022-12-31T12:05:24.671Z,100477.75
2022-12-31T12:07:55.152Z,100476.72
2022-12-31T12:10:35.202Z,100471.38
2022-12-31T12:13:13.717Z,100471.34
2022-12-31T12:15:48.423Z,100470.94
2022-12-31T12:18:28.557Z,100472.56
2022-12-31T12:21:11.781Z,100484.19
2022-12-31T12:23:42.638Z,100481.03
2022-12-31T12:26:30.907Z,100484.44
2022-12-31T12:29:01.614Z,100485.19
2022-12-31T12:31:34.294Z,100486.41
2022-12-31T12:34:04.446Z,100479.66
2022-12-31T12:36:34.090Z,100482.66
2022-12-31T12:39:05.970Z,100478.28
2022-12-31T12:41:34.800Z,100470.63
2022-12-31T12:44:06.099Z,100472.75
2022-12-31T12:46:42.588Z,100467.38
2022-12-31T12:49:23.941Z,100478.31
2022-12-31T12:52:16.390Z,100479.06
2022-12-31T12:55:06.153Z,100479.44
2022-12-31T12:57:46.448Z,100482.38
2022-12-31T13:00:21.047Z,100487.31
2022-12-31T13:03:18.311Z,100490.63
2022-12-31T13:05:59.113Z,100489.69
2022-12-31T13:08:47.843Z,100493.00
2022-12-31T13:11:30.775Z,100490.47
2022-12-31T13:14:06.289Z,100489.38
2022-12-31T13:16:41.792Z,100489.13
2022-12-31T13:19:20.845Z,100492.22
2022-12-31T13:21:58.888Z,100486.53
2022-12-31T13:24:43.260Z,100499.97
2022-12-31T13:27:21.454Z,100503.31
2022-12-31T13:29:51.370Z,100500.22
2022-12-31T13:32:27.737Z,100510.56
2022-12-31T13:35:04.920Z,100505.47
2022-12-31T13:37:42.009Z,100511.56
2022-12-31T13:40:21.299Z,100506.97
2022-12-31T13:42:57.063Z,100509.28
2022-12-31T13:45:31.870Z,100503.75
2022-12-31T13:48:06.700Z,100495.50
2022-12-31T13:50:43.988Z,100498.53
2022-12-31T13:53:20.278Z,100508.91
2022-12-31T13:55:57.972Z,100516.97
2022-12-31T13:58:35.090Z,100515.25
2022-12-31T14:01:13.799Z,100516.66
2022-12-31T14:03:52.270Z,100507.00
2022-12-31T14:06:28.478Z,100505.56
2022-12-31T14:08:57.821Z,100508.00
2022-12-31T14:11:46.726Z,100513.28
2022-12-31T14:14:25.316Z,100511.97
2022-12-31T14:16:59.976Z,100521.50
2022-12-31T14:19:44.229Z,100515.34
2022-12-31T14:22:23.367Z,100526.81
2022-12-31T14:24:53.435Z,100520.66
2022-12-31T14:27:27.913Z,100529.34
2022-12-31T14:30:00.568Z,100522.28
2022-12-31T14:32:50.932Z,100523.66
2022-12-31T14:35:46.631Z,100527.16
2022-12-31T14:38:34.200Z,100523.78
2022-12-31T14:41:20.722Z,100527.47
2022-12-31T14:44:04.594Z,100527.63
2022-12-31T14:46:41.362Z,100540.16
2022-12-31T14:49:22.524Z,100528.09
2022-12-31T14:51:51.625Z,100524.94
2022-12-31T14:54:29.306Z,100527.53
2022-12-31T14:56:58.403Z,100526.13
2022-12-31T14:59:32.292Z,100523.56
2022-12-31T15:02:04.920Z,100525.38
2022-12-31T15:04:35.897Z,100533.53
2022-12-31T15:07:12.355Z,100536.28
2022-12-31T15:10:08.391Z,100547.56
2022-12-31T15:12:52.379Z,100549.66
2022-12-31T15:15:35.980Z,100558.69
2022-12-31T15:18:30.206Z,100570.97
2022-12-31T15:21:32.365Z,100571.94
2022-12-31T15:24:02.082Z,100573.31
2022-12-31T15:26:34.801Z,100569.25
2022-12-31T15:29:07.088Z,100577.28
2022-12-31T15:31:37.758Z,100579.00
2022-12-31T15:34:23.688Z,100580.81
2022-12-31T15:36:55.976Z,100581.66
2022-12-31T15:39:37.017Z,100573.91
2022-12-31T15:42:38.618Z,100560.72
2022-12-31T15:45:16.071Z,100565.78
2022-12-31T15:47:49.931Z,100565.03
2022-12-31T15:50:21.546Z,100568.09
2022-12-31T15:52:55.130Z,100566.19
2022-12-31T15:55:30.216Z,100562.84
2022-12-31T15:58:05.607Z,100560.41
2022-12-31T16:00:53.420Z,100561.06
2022-12-31T16:03:25.399Z,100567.22
2022-12-31T16:06:00.453Z,100567.97
2022-12-31T16:08:32.544Z,100568.00
2022-12-31T16:11:02.556Z,100565.66
2022-12-31T16:13:36.186Z,100573.00
2022-12-31T16:16:07.891Z,100572.47
2022-12-31T16:18:40.681Z,100575.91
2022-12-31T16:21:26.881Z,100572.91
2022-12-31T16:23:57.622Z,100573.78
2022-12-31T16:26:32.956Z,100590.59
2022-12-31T16:29:04.693Z,100584.34
2022-12-31T16:31:34.090Z,100587.66
2022-12-31T16:34:08.564Z,100585.88
2022-12-31T16:36:37.514Z,100587.34
2022-12-31T16:39:28.046Z,100581.28
2022-12-31T16:42:19.148Z,100580.41
2022-12-31T16:44:49.540Z,100583.16
2022-12-31T16:47:22.775Z,100589.31
2022-12-31T16:50:01.730Z,100585.97
2022-12-31T16:52:35.128Z,100578.22
2022-12-31T16:55:09.216Z,100578.34
2022-12-31T16:57:39.752Z,100580.47
2022-12-31T17:00:17.652Z,100585.88
2022-12-31T17:02:51.468Z,100579.88
2022-12-31T17:05:21.919Z,100585.38
2022-12-31T17:07:51.193Z,100591.69
2022-12-31T17:10:24.768Z,100594.28
2022-12-31T17:15:49.325Z,100606.91
2022-12-31T17:18:20.673Z,100603.38
2022-12-31T17:20:51.501Z,100602.56
2022-12-31T17:23:26.519Z,100601.69
2022-12-31T17:26:04.398Z,100603.53
2022-12-31T17:28:43.059Z,100609.78
2022-12-31T17:31:38.531Z,100595.47
2022-12-31T17:34:22.658Z,100599.06
2022-12-31T17:37:17.647Z,100604.34
2022-12-31T17:39:50.005Z,100599.81
2022-12-31T17:42:29.021Z,100609.34
2022-12-31T17:45:01.339Z,100602.56
2022-12-31T17:47:39.529Z,100597.13
2022-12-31T17:50:19.165Z,100600.06
2022-12-31T17:52:48.190Z,100609.66
2022-12-31T17:55:17.646Z,100608.81
2022-12-31T17:57:51.856Z,100612.25
2022-12-31T18:00:23.585Z,100604.31
2022-12-31T18:02:53.808Z,100596.22
2022-12-31T18:05:25.061Z,100602.97
2022-12-31T18:07:54.241Z,100599.28
2022-12-31T18:10:25.433Z,100603.44
2022-12-31T18:12:54.274Z,100601.59
2022-12-31T18:15:25.229Z,100604.13
2022-12-31T18:17:55.301Z,100598.72
2022-12-31T18:20:25.303Z,100603.03
2022-12-31T18:22:55.818Z,100588.81
2022-12-31T18:25:25.388Z,100601.13
2022-12-31T18:27:54.196Z,100588.75
2022-12-31T18:30:23.579Z,100590.47
2022-12-31T18:32:52.596Z,100594.88
2022-12-31T18:38:13.843Z,100581.81
2022-12-31T18:40:46.813Z,100581.06
2022-12-31T18:43:17.793Z,100585.84
2022-12-31T18:45:46.982Z,100594.03
2022-12-31T18:48:16.419Z,100601.94
2022-12-31T18:50:47.269Z,100610.50
2022-12-31T18:53:18.474Z,100604.31
2022-12-31T18:55:50.367Z,100602.59
2022-12-31T18:58:19.802Z,100608.69
2022-12-31T19:00:50.574Z,100599.97
2022-12-31T19:03:21.342Z,100602.69
2022-12-31T19:05:52.750Z,100596.47
2022-12-31T19:08:22.871Z,100602.13
2022-12-31T19:10:53.788Z,100603.09
2022-12-31T19:13:23.375Z,100595.03
2022-12-31T19:15:55.614Z,100593.53
2022-12-31T19:18:24.241Z,100596.41
2022-12-31T19:20:54.622Z,100585.84
2022-12-31T19:23:23.209Z,100597.41
2022-12-31T19:25:52.247Z,100600.91
2022-12-31T19:28:25.828Z,100603.47
2022-12-31T19:30:55.048Z,100596.31
2022-12-31T19:33:23.710Z,100596.22
2022-12-31T19:35:54.115Z,100603.84
2022-12-31T19:38:25.038Z,100606.47
2022-12-31T19:40:55.052Z,100607.16
2022-12-31T19:43:24.906Z,100611.47
2022-12-31T19:45:54.346Z,100611.34
2022-12-31T19:48:30.505Z,100620.00
2022-12-31T19:51:02.910Z,100618.16
2022-12-31T19:53:31.998Z,100619.03
2022-12-31T19:56:00.858Z,100625.31
2022-12-31T19:58:29.459Z,100615.91
2022-12-31T20:01:02.861Z,100622.94
2022-12-31T20:03:32.573Z,100612.59
2022-12-31T20:06:05.479Z,100614.56
2022-12-31T20:08:34.434Z,100610.25
2022-12-31T20:11:09.254Z,100605.09
2022-12-31T20:13:38.103Z,100608.94
2022-12-31T20:16:08.633Z,100608.94
2022-12-31T20:18:38.679Z,100602.84
2022-12-31T20:21:12.375Z,100606.38
2022-12-31T20:23:41.031Z,100602.88
2022-12-31T20:26:10.238Z,100600.28
2022-12-31T20:28:39.126Z,100613.38
2022-12-31T20:31:08.835Z,100605.47
2022-12-31T20:33:37.868Z,100602.19
2022-12-31T20:36:08.454Z,100608.47
2022-12-31T20:38:38.824Z,100604.94
2022-12-31T20:41:09.620Z,100608.53
2022-12-31T20:43:39.173Z,100614.78
2022-12-31T20:46:14.433Z,100602.28
2022-12-31T20:48:43.404Z,100599.72
2022-12-31T20:51:13.217Z,100609.41
2022-12-31T20:53:47.675Z,100608.53
2022-12-31T20:56:17.403Z,100605.03
2022-12-31T20:58:46.348Z,100602.66
2022-12-31T21:01:16.258Z,100607.97
2022-12-31T21:06:36.930Z,100600.97
2022-12-31T21:09:08.696Z,100604.56
2022-12-31T21:11:55.156Z,100601.84
2022-12-31T21:14:23.928Z,100615.78
2022-12-31T21:16:52.828Z,100609.53
2022-12-31T21:19:21.515Z,100609.47
2022-12-31T21:21:50.475Z,100616.41
2022-12-31T21:24:23.811Z,100619.22
2022-12-31T21:26:55.685Z,100620.06
2022-12-31T21:29:24.606Z,100613.78
2022-12-31T21:31:53.548Z,100616.47
2022-12-31T21:34:22.272Z,100618.22
2022-12-31T21:36:51.610Z,100626.16
2022-12-31T21:39:21.592Z,100620.84
2022-12-31T21:41:54.658Z,100629.59
2022-12-31T21:44:24.757Z,100633.94
2022-12-31T21:47:35.008Z,100632.22
2022-12-31T21:49:46.303Z,100631.47
2022-12-31T21:52:27.622Z,100633.28
2022-12-31T21:55:15.755Z,100626.84
2022-12-31T21:58:15.467Z,100623.41
2022-12-31T22:00:52.736Z,100621.59
2022-12-31T22:03:28.641Z,100638.28
2022-12-31T22:06:00.248Z,100628.44
2022-12-31T22:08:30.560Z,100631.88
2022-12-31T22:11:00.528Z,100630.97
2022-12-31T22:13:29.519Z,100632.81
2022-12-31T22:16:04.619Z,100634.63
2022-12-31T22:18:38.743Z,100638.28
2022-12-31T22:21:17.707Z,100629.44
2022-12-31T22:23:49.312Z,100634.84
2022-12-31T22:26:21.583Z,100637.41
2022-12-31T22:28:50.851Z,100626.53
2022-12-31T22:31:21.087Z,100626.59
2022-12-31T22:33:50.521Z,100628.28
2022-12-31T22:36:21.121Z,100619.56
2022-12-31T22:38:52.101Z,100617.72
2022-12-31T22:41:23.208Z,100618.59
2022-12-31T22:44:00.483Z,100627.72
2022-12-31T22:46:32.239Z,100634.00
2022-12-31T22:49:02.839Z,100635.66
2022-12-31T22:51:57.298Z,100630.47
2022-12-31T22:54:21.364Z,100626.03
2022-12-31T22:56:51.260Z,100633.13
2022-12-31T22:59:20.000Z,100622.59
2022-12-31T23:01:48.653Z,100627.81
2022-12-31T23:04:17.777Z,100634.78
2022-12-31T23:06:46.485Z,100638.41
2022-12-31T23:09:36.893Z,100620.91
2022-12-31T23:12:08.907Z,100622.50
2022-12-31T23:14:56.167Z,100628.00
2022-12-31T23:17:44.534Z,100630.75
2022-12-31T23:20:33.326Z,100632.31
2022-12-31T23:23:11.871Z,100638.63
2022-12-31T23:25:43.291Z,100625.56
2022-12-31T23:28:15.996Z,100634.31
2022-12-31T23:30:45.179Z,100633.41
2022-12-31T23:33:17.153Z,100639.63
2022-12-31T23:35:46.354Z,100637.13
2022-12-31T23:38:16.787Z,100637.16
2022-12-31T23:40:45.861Z,100643.41
2022-12-31T23:43:21.646Z,100636.31
2022-12-31T23:45:51.539Z,100637.16
2022-12-31T23:48:20.547Z,100633.53
2022-12-31T23:50:53.390Z,100634.31
2022-12-31T23:53:23.313Z,100636.78
2022-12-31T23:55:52.260Z,100631.69
2022-12-31T23:58:22.813Z,100641.19
